sensor_id;sensor_type;location;lat;lon;timestamp;pressure;altitude;pressure_sealevel;temperature;humidity
54918;BME280;40818;50.562;7.454;2022-08-03T05:23:29;97762.03;;;19.16;79.53
54918;BME280;40818;50.562;7.454;2022-08-03T05:28:32;97761.50;;;19.38;78.93
54918;BME280;40818;50.562;7.454;2022-08-03T05:33:36;97775.81;;;19.70;78.51
54918;BME280;40818;50.562;7.454;2022-08-03T05:38:42;97776.47;;;20.07;76.17
54918;BME280;40818;50.562;7.454;2022-08-03T05:43:46;97773.16;;;20.48;74.75
54918;BME280;40818;50.562;7.454;2022-08-03T05:48:49;97771.06;;;20.92;72.82
54918;BME280;40818;50.562;7.454;2022-08-03T05:53:55;97769.06;;;21.19;70.82
54918;BME280;40818;50.562;7.454;2022-08-03T05:58:59;97767.53;;;21.49;69.94
54918;BME280;40818;50.562;7.454;2022-08-03T06:04:03;97769.72;;;21.94;68.17
54918;BME280;40818;50.562;7.454;2022-08-03T06:09:09;97773.47;;;22.31;64.95
54918;BME280;40818;50.562;7.454;2022-08-03T06:14:13;97769.97;;;22.70;64.02
54918;BME280;40818;50.562;7.454;2022-08-03T06:19:16;97776.81;;;23.26;61.97
54918;BME280;40818;50.562;7.454;2022-08-03T06:24:22;97777.47;;;23.58;61.02
54918;BME280;40818;50.562;7.454;2022-08-03T06:29:25;97777.66;;;23.86;59.05
54918;BME280;40818;50.562;7.454;2022-08-03T06:34:29;97781.31;;;24.73;57.38
54918;BME280;40818;50.562;7.454;2022-08-03T06:39:35;97785.63;;;25.52;53.80
54918;BME280;40818;50.562;7.454;2022-08-03T06:44:38;97776.22;;;25.85;53.13
54918;BME280;40818;50.562;7.454;2022-08-03T06:49:42;97782.47;;;26.87;52.56
54918;BME280;40818;50.562;7.454;2022-08-03T06:54:48;97787.25;;;28.04;48.27
54918;BME280;40818;50.562;7.454;2022-08-03T06:59:51;97787.53;;;29.05;45.15
54918;BME280;40818;50.562;7.454;2022-08-03T07:04:56;97793.22;;;29.78;45.84
54918;BME280;40818;50.562;7.454;2022-08-03T07:10:03;97791.41;;;30.76;41.97
54918;BME280;40818;50.562;7.454;2022-08-03T07:15:07;97789.00;;;30.98;37.61
54918;BME280;40818;50.562;7.454;2022-08-03T07:20:11;97794.75;;;31.85;40.90
54918;BME280;40818;50.562;7.454;2022-08-03T07:25:20;97791.69;;;32.63;38.09
54918;BME280;40818;50.562;7.454;2022-08-03T07:30:23;97799.91;;;33.19;37.92
54918;BME280;40818;50.562;7.454;2022-08-03T07:35:27;97794.84;;;33.40;36.70
54918;BME280;40818;50.562;7.454;2022-08-03T07:40:33;97791.28;;;33.17;33.33
54918;BME280;40818;50.562;7.454;2022-08-03T07:45:36;97782.91;;;32.67;35.06
54918;BME280;40818;50.562;7.454;2022-08-03T07:50:40;97792.13;;;33.96;33.64
54918;BME280;40818;50.562;7.454;2022-08-03T07:55:46;97781.13;;;34.74;30.92
54918;BME280;40818;50.562;7.454;2022-08-03T08:00:49;97795.66;;;35.38;30.67
54918;BME280;40818;50.562;7.454;2022-08-03T08:05:53;97792.25;;;36.01;31.23
54918;BME280;40818;50.562;7.454;2022-08-03T08:10:59;97793.25;;;36.73;28.23
54918;BME280;40818;50.562;7.454;2022-08-03T08:16:03;97784.88;;;37.32;28.21
54918;BME280;40818;50.562;7.454;2022-08-03T08:21:06;97785.41;;;37.29;28.07
54918;BME280;40818;50.562;7.454;2022-08-03T08:26:12;97778.63;;;36.64;26.90
54918;BME280;40818;50.562;7.454;2022-08-03T08:31:16;97777.56;;;36.96;27.78
54918;BME280;40818;50.562;7.454;2022-08-03T08:36:19;97784.06;;;37.42;28.01
54918;BME280;40818;50.562;7.454;2022-08-03T08:41:26;97781.03;;;37.58;26.66
54918;BME280;40818;50.562;7.454;2022-08-03T08:46:33;97781.78;;;37.80;25.64
54918;BME280;40818;50.562;7.454;2022-08-03T08:51:39;97789.53;;;38.02;26.22
54918;BME280;40818;50.562;7.454;2022-08-03T08:56:47;97783.75;;;38.19;24.77
54918;BME280;40818;50.562;7.454;2022-08-03T09:01:55;97782.53;;;38.46;26.05
54918;BME280;40818;50.562;7.454;2022-08-03T09:07:00;97781.44;;;38.52;25.65
54918;BME280;40818;50.562;7.454;2022-08-03T09:12:07;97778.38;;;38.14;25.75
54918;BME280;40818;50.562;7.454;2022-08-03T09:17:10;97783.56;;;38.05;25.08
54918;BME280;40818;50.562;7.454;2022-08-03T09:22:16;97778.31;;;37.64;25.90
54918;BME280;40818;50.562;7.454;2022-08-03T09:27:22;97772.16;;;36.91;26.76
54918;BME280;40818;50.562;7.454;2022-08-03T09:32:26;97775.97;;;36.85;26.31
54918;BME280;40818;50.562;7.454;2022-08-03T09:37:30;97776.22;;;37.09;25.81
54918;BME280;40818;50.562;7.454;2022-08-03T09:42:36;97771.59;;;37.25;26.87
54918;BME280;40818;50.562;7.454;2022-08-03T09:47:40;97765.69;;;36.82;26.74
54918;BME280;40818;50.562;7.454;2022-08-03T09:52:43;97770.28;;;37.07;25.74
54918;BME280;40818;50.562;7.454;2022-08-03T09:58:03;97776.06;;;36.11;26.96
54918;BME280;40818;50.562;7.454;2022-08-03T10:03:08;97765.63;;;36.56;27.25
54918;BME280;40818;50.562;7.454;2022-08-03T10:08:14;97763.72;;;37.54;25.98
54918;BME280;40818;50.562;7.454;2022-08-03T10:13:21;97759.13;;;37.34;26.17
54918;BME280;40818;50.562;7.454;2022-08-03T10:18:25;97751.75;;;38.31;24.27
54918;BME280;40818;50.562;7.454;2022-08-03T10:23:33;97747.63;;;38.39;24.97
54918;BME280;40818;50.562;7.454;2022-08-03T10:28:41;97748.75;;;37.72;24.58
54918;BME280;40818;50.562;7.454;2022-08-03T10:33:50;97740.06;;;37.70;25.47
54918;BME280;40818;50.562;7.454;2022-08-03T10:38:54;97737.25;;;38.86;24.33
54918;BME280;40818;50.562;7.454;2022-08-03T10:44:02;97736.72;;;39.18;24.14
54918;BME280;40818;50.562;7.454;2022-08-03T10:49:09;97715.47;;;38.96;23.82
54918;BME280;40818;50.562;7.454;2022-08-03T10:54:38;97721.75;;;39.69;23.05
54918;BME280;40818;50.562;7.454;2022-08-03T11:00:00;97718.94;;;40.37;21.57
54918;BME280;40818;50.562;7.454;2022-08-03T11:05:27;97710.75;;;39.55;22.37
54918;BME280;40818;50.562;7.454;2022-08-03T11:10:30;97706.56;;;39.87;23.32
54918;BME280;40818;50.562;7.454;2022-08-03T11:15:36;97706.50;;;40.31;22.30
54918;BME280;40818;50.562;7.454;2022-08-03T11:20:45;97701.13;;;39.87;21.82
54918;BME280;40818;50.562;7.454;2022-08-03T11:26:07;97700.78;;;40.32;21.62
54918;BME280;40818;50.562;7.454;2022-08-03T11:37:21;97701.41;;;39.67;21.87
54918;BME280;40818;50.562;7.454;2022-08-03T11:42:40;97695.94;;;40.29;21.94
54918;BME280;40818;50.562;7.454;2022-08-03T11:47:48;97693.66;;;40.55;21.77
54918;BME280;40818;50.562;7.454;2022-08-03T11:52:56;97697.94;;;40.89;22.33
54918;BME280;40818;50.562;7.454;2022-08-03T11:57:59;97680.69;;;40.47;21.36
54918;BME280;40818;50.562;7.454;2022-08-03T12:03:05;97688.94;;;39.85;22.19
54918;BME280;40818;50.562;7.454;2022-08-03T12:08:13;97691.25;;;39.53;22.58
54918;BME280;40818;50.562;7.454;2022-08-03T12:13:18;97682.88;;;39.74;23.34
54918;BME280;40818;50.562;7.454;2022-08-03T12:18:23;97678.06;;;39.41;22.83
54918;BME280;40818;50.562;7.454;2022-08-03T12:23:29;97681.13;;;37.57;24.30
54918;BME280;40818;50.562;7.454;2022-08-03T12:28:33;97679.44;;;37.66;24.78
54918;BME280;40818;50.562;7.454;2022-08-03T12:33:54;97672.19;;;38.06;24.10
54918;BME280;40818;50.562;7.454;2022-08-03T12:39:03;97673.72;;;36.41;25.74
54918;BME280;40818;50.562;7.454;2022-08-03T12:44:08;97680.84;;;35.68;27.23
54918;BME280;40818;50.562;7.454;2022-08-03T12:49:13;97669.91;;;36.11;26.79
54918;BME280;40818;50.562;7.454;2022-08-03T12:54:22;97666.69;;;35.35;27.45
54918;BME280;40818;50.562;7.454;2022-08-03T12:59:27;97676.16;;;35.43;26.51
54918;BME280;40818;50.562;7.454;2022-08-03T13:04:32;97659.53;;;34.11;28.19
54918;BME280;40818;50.562;7.454;2022-08-03T13:09:44;97665.16;;;33.82;28.96
54918;BME280;40818;50.562;7.454;2022-08-03T13:14:51;97667.91;;;34.36;28.67
54918;BME280;40818;50.562;7.454;2022-08-03T13:19:55;97662.38;;;34.26;29.99
54918;BME280;40818;50.562;7.454;2022-08-03T13:25:01;97658.72;;;35.08;27.48
54918;BME280;40818;50.562;7.454;2022-08-03T13:30:06;97647.59;;;34.99;27.37
54918;BME280;40818;50.562;7.454;2022-08-03T13:35:10;97655.78;;;35.78;27.40
54918;BME280;40818;50.562;7.454;2022-08-03T13:40:17;97639.03;;;35.70;26.29
54918;BME280;40818;50.562;7.454;2022-08-03T13:45:20;97645.84;;;35.25;27.45
54918;BME280;40818;50.562;7.454;2022-08-03T13:50:24;97627.69;;;35.74;27.92
54918;BME280;40818;50.562;7.454;2022-08-03T13:55:30;97625.16;;;35.46;26.63
54918;BME280;40818;50.562;7.454;2022-08-03T14:00:34;97623.31;;;34.56;28.25
54918;BME280;40818;50.562;7.454;2022-08-03T14:05:37;97616.44;;;33.56;29.59
54918;BME280;40818;50.562;7.454;2022-08-03T14:10:44;97625.47;;;33.45;28.69
54918;BME280;40818;50.562;7.454;2022-08-03T14:15:47;97624.03;;;33.20;28.64
54918;BME280;40818;50.562;7.454;2022-08-03T14:20:51;97616.19;;;33.35;30.52
54918;BME280;40818;50.562;7.454;2022-08-03T14:25:57;97623.22;;;32.97;29.00
54918;BME280;40818;50.562;7.454;2022-08-03T14:31:01;97607.03;;;33.81;28.52
54918;BME280;40818;50.562;7.454;2022-08-03T14:36:05;97596.41;;;33.47;29.32
54918;BME280;40818;50.562;7.454;2022-08-03T14:41:11;97598.34;;;33.51;29.06
54918;BME280;40818;50.562;7.454;2022-08-03T14:46:14;97595.28;;;33.43;28.98
54918;BME280;40818;50.562;7.454;2022-08-03T14:51:18;97583.03;;;33.52;28.84
54918;BME280;40818;50.562;7.454;2022-08-03T14:56:24;97580.34;;;33.52;28.79
54918;BME280;40818;50.562;7.454;2022-08-03T15:01:27;97579.22;;;33.26;28.99
54918;BME280;40818;50.562;7.454;2022-08-03T15:06:30;97578.59;;;33.41;28.29
54918;BME280;40818;50.562;7.454;2022-08-03T15:11:36;97567.59;;;33.42;29.23
54918;BME280;40818;50.562;7.454;2022-08-03T15:16:40;97571.91;;;33.71;28.72
54918;BME280;40818;50.562;7.454;2022-08-03T15:21:43;97554.88;;;33.87;28.64
54918;BME280;40818;50.562;7.454;2022-08-03T15:26:50;97555.91;;;33.86;28.01
54918;BME280;40818;50.562;7.454;2022-08-03T15:31:53;97548.00;;;33.03;29.22
54918;BME280;40818;50.562;7.454;2022-08-03T15:36:57;97550.63;;;32.97;29.35
54918;BME280;40818;50.562;7.454;2022-08-03T15:42:03;97542.06;;;33.00;29.29
54918;BME280;40818;50.562;7.454;2022-08-03T15:47:07;97545.00;;;33.21;29.33
54918;BME280;40818;50.562;7.454;2022-08-03T15:52:10;97541.31;;;33.27;29.98
54918;BME280;40818;50.562;7.454;2022-08-03T15:57:16;97537.94;;;33.37;29.10
54918;BME280;40818;50.562;7.454;2022-08-03T16:02:19;97534.63;;;33.30;29.60
54918;BME280;40818;50.562;7.454;2022-08-03T16:07:23;97523.06;;;33.57;29.87
54918;BME280;40818;50.562;7.454;2022-08-03T16:12:42;97527.41;;;33.85;28.74
54918;BME280;40818;50.562;7.454;2022-08-03T16:17:46;97520.16;;;33.63;27.48
54918;BME280;40818;50.562;7.454;2022-08-03T16:22:49;97508.50;;;33.52;29.50
54918;BME280;40818;50.562;7.454;2022-08-03T16:27:55;97512.06;;;33.09;28.00
54918;BME280;40818;50.562;7.454;2022-08-03T16:32:58;97511.44;;;32.62;28.67
54918;BME280;40818;50.562;7.454;2022-08-03T16:38:02;97510.78;;;32.72;28.17
54918;BME280;40818;50.562;7.454;2022-08-03T16:43:13;97512.25;;;32.80;28.88
54918;BME280;40818;50.562;7.454;2022-08-03T16:48:17;97516.50;;;32.59;29.17
54918;BME280;40818;50.562;7.454;2022-08-03T16:53:21;97506.06;;;32.62;29.00
54918;BME280;40818;50.562;7.454;2022-08-03T16:58:27;97510.25;;;32.70;29.61
54918;BME280;40818;50.562;7.454;2022-08-03T17:03:31;97509.00;;;32.61;29.23
54918;BME280;40818;50.562;7.454;2022-08-03T17:08:38;97519.13;;;32.54;29.77
54918;BME280;40818;50.562;7.454;2022-08-03T17:13:44;97516.72;;;32.35;30.36
54918;BME280;40818;50.562;7.454;2022-08-03T17:18:53;97513.97;;;32.30;30.37
54918;BME280;40818;50.562;7.454;2022-08-03T17:24:03;97511.59;;;31.99;30.69
54918;BME280;40818;50.562;7.454;2022-08-03T17:29:13;97510.94;;;31.92;30.85
54918;BME280;40818;50.562;7.454;2022-08-03T17:34:19;97510.84;;;31.87;31.41
54918;BME280;40818;50.562;7.454;2022-08-03T17:39:23;97516.84;;;31.77;32.16
54918;BME280;40818;50.562;7.454;2022-08-03T17:44:31;97516.66;;;31.50;32.40
54918;BME280;40818;50.562;7.454;2022-08-03T17:49:36;97511.38;;;31.26;32.95
54918;BME280;40818;50.562;7.454;2022-08-03T17:54:43;97515.31;;;31.07;33.39
54918;BME280;40818;50.562;7.454;2022-08-03T17:59:53;97515.78;;;30.92;33.50
54918;BME280;40818;50.562;7.454;2022-08-03T18:05:02;97512.91;;;30.81;34.33
54918;BME280;40818;50.562;7.454;2022-08-03T18:10:07;97513.16;;;30.56;35.11
54918;BME280;40818;50.562;7.454;2022-08-03T18:15:22;97514.91;;;30.39;34.88
54918;BME280;40818;50.562;7.454;2022-08-03T18:20:26;97520.13;;;30.34;35.46
54918;BME280;40818;50.562;7.454;2022-08-03T18:25:30;97512.19;;;30.27;35.63
54918;BME280;40818;50.562;7.454;2022-08-03T18:30:40;97514.41;;;30.18;35.99
54918;BME280;40818;50.562;7.454;2022-08-03T18:35:44;97515.81;;;30.09;35.76
54918;BME280;40818;50.562;7.454;2022-08-03T18:40:48;97520.56;;;29.95;36.42
54918;BME280;40818;50.562;7.454;2022-08-03T18:45:56;97515.97;;;29.84;36.41
54918;BME280;40818;50.562;7.454;2022-08-03T18:51:04;97517.81;;;29.71;36.63
54918;BME280;40818;50.562;7.454;2022-08-03T18:56:17;97520.19;;;29.49;37.01
54918;BME280;40818;50.562;7.454;2022-08-03T19:01:32;97535.91;;;29.08;37.74
54918;BME280;40818;50.562;7.454;2022-08-03T19:06:42;97527.47;;;28.93;37.76
54918;BME280;40818;50.562;7.454;2022-08-03T19:11:50;97530.81;;;28.88;38.11
54918;BME280;40818;50.562;7.454;2022-08-03T19:17:04;97536.53;;;28.48;39.56
54918;BME280;40818;50.562;7.454;2022-08-03T19:22:08;97542.59;;;28.37;39.38
54918;BME280;40818;50.562;7.454;2022-08-03T19:27:13;97549.28;;;28.21;40.06
54918;BME280;40818;50.562;7.454;2022-08-03T19:32:19;97555.81;;;28.00;40.98
54918;BME280;40818;50.562;7.454;2022-08-03T19:37:24;97549.63;;;27.74;41.50
54918;BME280;40818;50.562;7.454;2022-08-03T19:42:29;97549.09;;;27.58;42.47
54918;BME280;40818;50.562;7.454;2022-08-03T19:47:40;97555.78;;;27.36;43.26
54918;BME280;40818;50.562;7.454;2022-08-03T19:52:47;97554.97;;;27.22;43.31
54918;BME280;40818;50.562;7.454;2022-08-03T19:57:52;97550.97;;;27.06;43.73
54918;BME280;40818;50.562;7.454;2022-08-03T20:03:00;97553.63;;;27.06;43.53
54918;BME280;40818;50.562;7.454;2022-08-03T20:08:05;97550.56;;;26.96;43.95
54918;BME280;40818;50.562;7.454;2022-08-03T20:13:08;97548.56;;;26.84;43.97
54918;BME280;40818;50.562;7.454;2022-08-03T20:18:15;97539.78;;;26.70;44.28
54918;BME280;40818;50.562;7.454;2022-08-03T20:23:19;97541.66;;;26.70;44.07
54918;BME280;40818;50.562;7.454;2022-08-03T20:28:28;97536.72;;;26.67;44.06
54918;BME280;40818;50.562;7.454;2022-08-03T20:33:35;97544.06;;;26.65;44.26
54918;BME280;40818;50.562;7.454;2022-08-03T20:38:39;97544.69;;;26.67;43.87
54918;BME280;40818;50.562;7.454;2022-08-03T20:43:43;97546.13;;;26.63;44.09
54918;BME280;40818;50.562;7.454;2022-08-03T20:48:51;97535.50;;;26.63;44.23
54918;BME280;40818;50.562;7.454;2022-08-03T20:53:55;97538.38;;;26.54;44.17
54918;BME280;40818;50.562;7.454;2022-08-03T20:59:02;97536.53;;;26.48;44.34
54918;BME280;40818;50.562;7.454;2022-08-03T21:04:09;97533.88;;;26.48;43.84
54918;BME280;40818;50.562;7.454;2022-08-03T21:09:17;97528.53;;;26.48;43.78
54918;BME280;40818;50.562;7.454;2022-08-03T21:14:24;97533.06;;;26.41;44.41
54918;BME280;40818;50.562;7.454;2022-08-03T21:19:31;97528.38;;;26.30;44.57
54918;BME280;40818;50.562;7.454;2022-08-03T21:24:38;97530.81;;;26.24;44.74
54918;BME280;40818;50.562;7.454;2022-08-03T21:29:42;97530.44;;;26.14;44.93
54918;BME280;40818;50.562;7.454;2022-08-03T21:34:49;97531.22;;;26.08;44.95
54918;BME280;40818;50.562;7.454;2022-08-03T21:39:54;97523.28;;;26.01;45.36
54918;BME280;40818;50.562;7.454;2022-08-03T21:44:57;97530.59;;;25.93;45.68
54918;BME280;40818;50.562;7.454;2022-08-03T21:50:09;97522.81;;;25.84;45.92
54918;BME280;40818;50.562;7.454;2022-08-03T21:55:14;97535.69;;;25.74;45.59
54918;BME280;40818;50.562;7.454;2022-08-03T22:00:19;97518.91;;;25.60;45.43
54918;BME280;40818;50.562;7.454;2022-08-03T22:05:26;97521.72;;;25.45;45.56
54918;BME280;40818;50.562;7.454;2022-08-03T22:10:29;97524.78;;;25.42;45.33
54918;BME280;40818;50.562;7.454;2022-08-03T22:15:33;97523.09;;;25.28;45.49
54918;BME280;40818;50.562;7.454;2022-08-03T22:20:39;97518.34;;;25.23;45.28
